createdAt,value
2023-02-07T00:03:20.239Z,102921.88
2023-02-07T00:07:23.300Z,102925.59
2023-02-07T00:11:26.363Z,102922.94
2023-02-07T00:15:30.838Z,102921.03
2023-02-07T00:19:33.915Z,102919.38
2023-02-07T00:23:37.600Z,102916.75
2023-02-07T00:27:40.599Z,102918.56
2023-02-07T00:31:44.992Z,102921.28
2023-02-07T00:35:57.648Z,102921.09
2023-02-07T00:40:00.624Z,102903.03
2023-02-07T00:44:03.641Z,102913.06
2023-02-07T00:48:08.081Z,102910.31
2023-02-07T00:52:11.134Z,102914.09
2023-02-07T00:56:15.230Z,102908.28
2023-02-07T01:00:18.603Z,102912.19
2023-02-07T01:04:24.346Z,102921.47
2023-02-07T01:08:27.614Z,102920.22
2023-02-07T01:12:30.653Z,102934.13
2023-02-07T01:16:37.327Z,102932.75
2023-02-07T01:20:42.263Z,102933.25
2023-02-07T01:24:45.273Z,102933.41
2023-02-07T01:28:48.279Z,102927.53
2023-02-07T01:32:51.861Z,102930.31
2023-02-07T01:36:56.236Z,102925.53
2023-02-07T01:40:59.261Z,102926.84
2023-02-07T01:45:14.376Z,102932.94
2023-02-07T01:49:22.649Z,102936.22
2023-02-07T01:53:30.041Z,102936.91
2023-02-07T01:57:33.430Z,102912.78
2023-02-07T02:01:37.300Z,102923.19
2023-02-07T02:05:41.363Z,102914.00
2023-02-07T02:09:45.832Z,102912.28
2023-02-07T02:13:54.829Z,102909.66
2023-02-07T02:18:14.662Z,102901.84
2023-02-07T02:22:40.925Z,102913.28
2023-02-07T02:26:58.167Z,102911.22
2023-02-07T02:31:26.568Z,102914.19
2023-02-07T02:35:37.404Z,102905.44
2023-02-07T02:39:49.027Z,102900.78
2023-02-07T02:43:57.828Z,102912.72
2023-02-07T02:48:02.228Z,102913.78
2023-02-07T02:52:07.681Z,102908.13
2023-02-07T02:56:39.373Z,102904.75
2023-02-07T03:00:56.719Z,102905.41
2023-02-07T03:05:21.981Z,102897.06
2023-02-07T03:09:38.149Z,102900.03
2023-02-07T03:13:51.707Z,102897.75
2023-02-07T03:17:59.700Z,102888.50
2023-02-07T03:22:10.554Z,102883.91
2023-02-07T03:26:15.141Z,102879.34
2023-02-07T03:30:21.946Z,102867.81
2023-02-07T03:34:30.699Z,102866.88
2023-02-07T03:38:34.133Z,102873.47
2023-02-07T03:42:41.237Z,102888.41
2023-02-07T03:46:44.355Z,102884.31
2023-02-07T03:50:49.887Z,102880.84
2023-02-07T03:54:52.958Z,102878.22
2023-02-07T03:58:57.279Z,102885.69
2023-02-07T04:03:00.272Z,102881.47
2023-02-07T04:07:03.326Z,102879.59
2023-02-07T04:11:06.545Z,102882.53
2023-02-07T04:15:11.833Z,102889.44
2023-02-07T04:19:14.877Z,102878.44
2023-02-07T04:23:17.956Z,102874.50
2023-02-07T04:27:21.044Z,102875.44
2023-02-07T04:31:25.442Z,102874.00
2023-02-07T04:35:28.629Z,102878.13
2023-02-07T04:39:31.650Z,102870.09
2023-02-07T04:43:36.533Z,102860.13
2023-02-07T04:47:40.910Z,102861.38
2023-02-07T04:51:43.952Z,102852.84
2023-02-07T04:55:49.763Z,102847.97
2023-02-07T04:59:52.792Z,102857.91
2023-02-07T05:03:57.157Z,102856.66
2023-02-07T05:08:00.212Z,102854.22
2023-02-07T05:12:03.242Z,102863.38
2023-02-07T05:16:07.072Z,102856.03
2023-02-07T05:20:12.555Z,102845.44
2023-02-07T05:24:15.613Z,102855.72
2023-02-07T05:28:18.803Z,102852.56
2023-02-07T05:32:39.288Z,102851.84
2023-02-07T05:36:43.823Z,102862.97
2023-02-07T05:40:47.313Z,102870.13
2023-02-07T05:44:50.356Z,102868.22
2023-02-07T05:48:53.996Z,102881.63
2023-02-07T05:52:58.679Z,102871.84
2023-02-07T05:57:04.286Z,102877.81
2023-02-07T06:01:08.116Z,102885.34
2023-02-07T06:05:14.906Z,102890.63
2023-02-07T06:09:22.094Z,102892.31
2023-02-07T06:13:27.255Z,102901.88
2023-02-07T06:17:31.056Z,102907.44
2023-02-07T06:21:46.072Z,102914.25
2023-02-07T06:25:52.540Z,102913.09
2023-02-07T06:29:57.545Z,102912.31
2023-02-07T06:34:02.688Z,102924.03
2023-02-07T06:38:07.619Z,102923.66
2023-02-07T06:42:14.424Z,102926.06
2023-02-07T06:46:19.564Z,102921.06
2023-02-07T06:50:23.541Z,102933.94
2023-02-07T06:54:28.590Z,102943.31
2023-02-07T06:58:34.953Z,102941.13
2023-02-07T07:02:39.102Z,102946.78
2023-02-07T07:06:43.461Z,102952.06
2023-02-07T07:10:48.497Z,102950.19
2023-02-07T07:14:54.681Z,102956.78
2023-02-07T07:18:59.313Z,102953.88
2023-02-07T07:23:03.519Z,102957.78
2023-02-07T07:27:07.980Z,102963.44
2023-02-07T07:31:14.946Z,102964.47
2023-02-07T07:35:20.102Z,102970.66
2023-02-07T07:39:24.057Z,102978.19
2023-02-07T07:43:29.377Z,102989.66
2023-02-07T07:47:35.783Z,102987.03
2023-02-07T07:51:40.938Z,102999.53
2023-02-07T07:55:50.238Z,102991.25
2023-02-07T07:59:55.038Z,103004.16
2023-02-07T08:04:01.456Z,103002.72
2023-02-07T08:08:04.758Z,102992.59
2023-02-07T08:12:08.138Z,102974.63
2023-02-07T08:16:12.519Z,102957.38
2023-02-07T08:20:18.724Z,102947.00
2023-02-07T08:24:23.081Z,102939.88
2023-02-07T08:28:28.564Z,102937.56
2023-02-07T08:32:33.607Z,102927.59
2023-02-07T08:36:39.703Z,102911.97
2023-02-07T08:40:43.185Z,102918.09
2023-02-07T08:44:48.147Z,102916.78
2023-02-07T08:48:52.727Z,102910.63
2023-02-07T08:52:58.909Z,102912.84
2023-02-07T08:57:03.923Z,102907.97
2023-02-07T09:01:11.817Z,102911.03
2023-02-07T09:05:16.312Z,102905.47
2023-02-07T09:09:21.143Z,102899.34
2023-02-07T09:13:25.637Z,102892.50
2023-02-07T09:17:31.663Z,102906.88
2023-02-07T09:21:37.877Z,102896.09
2023-02-07T09:25:44.023Z,102902.56
2023-02-07T09:29:49.094Z,102888.16
2023-02-07T09:33:53.586Z,102882.16
2023-02-07T09:37:58.014Z,102878.88
2023-02-07T09:42:15.432Z,102884.03
2023-02-07T09:46:23.349Z,102892.56
2023-02-07T09:50:31.826Z,102885.09
2023-02-07T09:54:41.420Z,102883.00
2023-02-07T09:58:52.666Z,102887.38
2023-02-07T10:03:00.853Z,102888.25
2023-02-07T10:07:08.748Z,102882.75
2023-02-07T10:11:22.863Z,102882.34
2023-02-07T10:15:48.816Z,102876.97
2023-02-07T10:20:05.056Z,102880.88
2023-02-07T10:24:33.778Z,102878.06
2023-02-07T10:29:15.620Z,102872.63
2023-02-07T10:33:23.240Z,102882.88
2023-02-07T10:37:30.493Z,102865.22
2023-02-07T10:41:38.876Z,102867.53
2023-02-07T10:45:46.533Z,102874.06
2023-02-07T10:49:56.627Z,102871.16
2023-02-07T10:54:12.335Z,102871.88
2023-02-07T10:58:23.269Z,102867.94
2023-02-07T11:02:52.963Z,102868.44
2023-02-07T11:07:04.779Z,102875.69
2023-02-07T11:11:27.221Z,102873.38
2023-02-07T11:15:37.983Z,102861.31
2023-02-07T11:19:42.002Z,102860.00
2023-02-07T11:23:50.269Z,102858.78
2023-02-07T11:27:55.665Z,102858.31
2023-02-07T11:32:01.269Z,102869.41
2023-02-07T11:36:12.180Z,102864.97
2023-02-07T11:40:30.186Z,102854.41
2023-02-07T11:44:42.661Z,102854.19
2023-02-07T11:48:51.308Z,102855.19
2023-02-07T11:52:59.089Z,102866.69
2023-02-07T11:57:07.988Z,102859.31
2023-02-07T12:01:19.144Z,102850.16
2023-02-07T12:05:29.369Z,102848.53
2023-02-07T12:09:40.057Z,102850.31
2023-02-07T12:13:49.826Z,102853.63
2023-02-07T12:18:00.656Z,102847.06
2023-02-07T12:22:14.835Z,102850.91
2023-02-07T12:26:25.403Z,102843.41
2023-02-07T12:30:36.694Z,102843.38
2023-02-07T12:34:50.965Z,102840.06
2023-02-07T12:38:58.363Z,102842.56
2023-02-07T12:43:11.495Z,102835.94
2023-02-07T12:47:26.299Z,102832.72
2023-02-07T12:51:42.704Z,102833.44
2023-02-07T12:55:54.789Z,102846.09
2023-02-07T13:00:06.938Z,102828.41
2023-02-07T13:04:47.178Z,102830.47
2023-02-07T13:09:01.592Z,102817.81
2023-02-07T13:13:14.194Z,102829.59
2023-02-07T13:17:37.000Z,102811.59
2023-02-07T13:21:49.840Z,102808.53
2023-02-07T13:25:58.095Z,102816.75
2023-02-07T13:30:03.463Z,102817.63
2023-02-07T13:34:16.717Z,102810.78
2023-02-07T13:38:38.890Z,102807.59
2023-02-07T13:42:52.418Z,102815.09
2023-02-07T13:47:31.115Z,102800.94
2023-02-07T13:51:54.312Z,102786.75
2023-02-07T13:56:05.400Z,102785.16
2023-02-07T14:00:18.745Z,102799.69
2023-02-07T14:04:23.995Z,102799.38
2023-02-07T14:08:28.630Z,102792.31
2023-02-07T14:12:39.946Z,102801.06
2023-02-07T14:16:47.470Z,102809.72
2023-02-07T14:21:01.460Z,102803.50
2023-02-07T14:25:21.559Z,102803.72
2023-02-07T14:30:01.698Z,102794.94
2023-02-07T14:34:16.800Z,102804.94
2023-02-07T14:38:31.355Z,102801.00
2023-02-07T14:42:35.152Z,102795.81
2023-02-07T14:46:41.759Z,102787.31
2023-02-07T14:50:54.040Z,102795.53
2023-02-07T14:55:02.373Z,102793.00
2023-02-07T14:59:07.602Z,102800.00
2023-02-07T15:03:15.271Z,102796.38
2023-02-07T15:07:21.390Z,102806.88
2023-02-07T15:11:27.344Z,102800.03
2023-02-07T15:15:37.368Z,102796.47
2023-02-07T15:19:44.028Z,102793.69
2023-02-07T15:23:57.349Z,102796.63
2023-02-07T15:28:05.621Z,102788.34
2023-02-07T15:32:23.418Z,102795.41
2023-02-07T15:36:31.977Z,102795.81
2023-02-07T15:40:38.426Z,102787.19
2023-02-07T15:44:50.746Z,102789.06
2023-02-07T15:48:56.930Z,102779.91
2023-02-07T15:53:04.264Z,102781.81
2023-02-07T15:57:16.244Z,102777.56
2023-02-07T16:01:26.902Z,102782.00
2023-02-07T16:05:33.265Z,102779.47
2023-02-07T16:09:40.572Z,102772.53
2023-02-07T16:13:50.023Z,102770.94
2023-02-07T16:17:54.070Z,102784.81
2023-02-07T16:22:04.318Z,102777.63
2023-02-07T16:26:07.735Z,102784.00
2023-02-07T16:30:16.630Z,102776.81
2023-02-07T16:34:22.130Z,102783.78
2023-02-07T16:38:25.265Z,102780.28
2023-02-07T16:42:29.776Z,102780.38
2023-02-07T16:46:35.425Z,102789.16
2023-02-07T16:50:40.232Z,102797.56
2023-02-07T16:54:44.899Z,102803.25
2023-02-07T16:58:48.117Z,102804.78
2023-02-07T17:02:54.336Z,102818.63
2023-02-07T17:06:58.534Z,102820.09
2023-02-07T17:11:06.147Z,102827.72
2023-02-07T17:15:12.640Z,102829.50
2023-02-07T17:19:19.807Z,102831.81
2023-02-07T17:23:25.896Z,102848.63
2023-02-07T17:27:30.898Z,102833.34
2023-02-07T17:31:36.140Z,102845.13
2023-02-07T17:35:42.607Z,102851.09
2023-02-07T17:39:47.218Z,102850.84
2023-02-07T17:43:52.296Z,102842.94
2023-02-07T17:47:58.171Z,102840.31
2023-02-07T17:52:04.358Z,102842.66
2023-02-07T17:56:10.033Z,102854.19
2023-02-07T18:00:19.726Z,102847.03
2023-02-07T18:04:24.369Z,102842.09
2023-02-07T18:08:31.353Z,102845.38
2023-02-07T18:12:36.230Z,102839.28
2023-02-07T18:16:42.085Z,102834.38
2023-02-07T18:20:47.143Z,102843.41
2023-02-07T18:24:53.726Z,102835.53
2023-02-07T18:28:58.363Z,102835.88
2023-02-07T18:33:03.612Z,102830.66
2023-02-07T18:37:08.656Z,102830.00
2023-02-07T18:41:17.332Z,102834.84
2023-02-07T18:45:22.247Z,102828.94
2023-02-07T18:49:28.602Z,102824.59
2023-02-07T18:53:33.481Z,102832.25
2023-02-07T18:57:39.721Z,102831.38
2023-02-07T19:01:48.256Z,102822.88
2023-02-07T19:05:51.413Z,102824.28
2023-02-07T19:09:55.756Z,102820.47
2023-02-07T19:14:00.670Z,102818.28
2023-02-07T19:18:05.896Z,102814.72
2023-02-07T19:22:09.391Z,102828.09
2023-02-07T19:26:14.198Z,102832.75
2023-02-07T19:30:20.293Z,102835.03
2023-02-07T19:34:24.696Z,102824.94
2023-02-07T19:38:29.647Z,102828.22
2023-02-07T19:42:33.824Z,102825.41
2023-02-07T19:46:38.933Z,102828.25
2023-02-07T19:50:42.333Z,102823.34
2023-02-07T19:54:47.050Z,102829.28
2023-02-07T19:58:53.018Z,102828.50
2023-02-07T20:02:59.398Z,102834.03
2023-02-07T20:07:03.829Z,102833.22
2023-02-07T20:11:09.237Z,102842.75
2023-02-07T20:15:14.380Z,102836.16
2023-02-07T20:19:20.536Z,102834.16
2023-02-07T20:23:25.151Z,102836.47
2023-02-07T20:27:30.211Z,102836.63
2023-02-07T20:31:33.496Z,102829.69
2023-02-07T20:35:41.507Z,102830.78
2023-02-07T20:39:45.141Z,102829.19
2023-02-07T20:43:51.811Z,102826.69
2023-02-07T20:47:56.769Z,102826.84
2023-02-07T20:52:02.607Z,102827.16
2023-02-07T20:56:10.162Z,102828.56
2023-02-07T21:00:16.630Z,102831.31
2023-02-07T21:04:21.854Z,102830.91
2023-02-07T21:08:27.880Z,102834.16
2023-02-07T21:12:32.521Z,102838.28
2023-02-07T21:16:37.454Z,102829.34
2023-02-07T21:20:43.467Z,102827.38
2023-02-07T21:24:49.802Z,102819.69
2023-02-07T21:28:58.857Z,102825.97
2023-02-07T21:33:03.893Z,102832.25
2023-02-07T21:37:08.399Z,102830.28
2023-02-07T21:41:15.503Z,102830.91
2023-02-07T21:45:19.264Z,102822.72
2023-02-07T21:49:24.649Z,102826.50
2023-02-07T21:53:30.017Z,102814.50
2023-02-07T21:57:35.421Z,102817.03
2023-02-07T22:01:39.673Z,102814.50
2023-02-07T22:05:43.073Z,102811.22
2023-02-07T22:09:47.722Z,102817.38
2023-02-07T22:13:53.772Z,102819.72
2023-02-07T22:17:58.084Z,102820.19
2023-02-07T22:22:01.423Z,102822.09
2023-02-07T22:26:06.534Z,102828.47
2023-02-07T22:30:13.327Z,102811.97
2023-02-07T22:34:18.490Z,102796.78
2023-02-07T22:38:23.125Z,102791.75
2023-02-07T22:42:28.177Z,102792.88
2023-02-07T22:46:34.633Z,102778.38
2023-02-07T22:50:39.199Z,102771.69
2023-02-07T22:54:43.587Z,102769.66
2023-02-07T22:58:48.192Z,102771.00
2023-02-07T23:02:54.299Z,102765.44
2023-02-07T23:06:59.151Z,102768.00
2023-02-07T23:11:03.754Z,102771.00
2023-02-07T23:15:09.447Z,102771.03
2023-02-07T23:19:18.426Z,102774.38
2023-02-07T23:23:23.724Z,102780.13
2023-02-07T23:27:28.453Z,102775.66
2023-02-07T23:31:33.296Z,102783.31
2023-02-07T23:35:39.808Z,102787.13
2023-02-07T23:39:43.312Z,102782.72
2023-02-07T23:43:48.334Z,102782.72
2023-02-07T23:47:53.167Z,102785.66
2023-02-07T23:51:59.338Z,102782.06
2023-02-07T23:56:06.599Z,102780.56
